createdAt,value
2022-10-05T00:01:36.029Z,5.78
2022-10-05T00:04:15.454Z,6.45
2022-10-05T00:06:55.905Z,13.27
2022-10-05T00:09:32.368Z,7.43
2022-10-05T00:12:13.739Z,10.75
2022-10-05T00:14:49.107Z,4.63
2022-10-05T00:17:23.030Z,7.38
2022-10-05T00:19:55.531Z,4.45
2022-10-05T00:22:31.035Z,6.10
2022-10-05T00:25:10.620Z,6.53
2022-10-05T00:27:43.449Z,5.70
2022-10-05T00:30:19.291Z,8.95
2022-10-05T00:32:53.036Z,10.15
2022-10-05T00:35:29.479Z,7.40
2022-10-05T00:38:01.917Z,9.10
2022-10-05T00:40:46.549Z,7.88
2022-10-05T00:43:31.988Z,3.65
2022-10-05T00:46:12.172Z,9.10
2022-10-05T00:48:55.023Z,10.43
2022-10-05T00:51:28.867Z,7.43
2022-10-05T00:54:18.217Z,8.13
2022-10-05T00:57:08.877Z,5.43
2022-10-05T00:59:53.333Z,8.05
2022-10-05T01:02:36.888Z,10.88
2022-10-05T01:05:15.920Z,7.60
2022-10-05T01:07:53.705Z,10.93
2022-10-05T01:10:32.627Z,10.48
2022-10-05T01:13:12.285Z,12.52
2022-10-05T01:15:51.604Z,14.80
2022-10-05T01:18:29.833Z,11.60
2022-10-05T01:21:10.462Z,13.55
2022-10-05T01:24:28.907Z,6.70
2022-10-05T01:27:24.988Z,11.18
2022-10-05T01:30:06.918Z,4.63
2022-10-05T01:32:48.545Z,7.30
2022-10-05T01:35:31.096Z,11.38
2022-10-05T01:38:21.254Z,5.85
2022-10-05T01:41:02.425Z,5.75
2022-10-05T01:43:41.785Z,5.72
2022-10-05T01:46:24.568Z,6.53
2022-10-05T01:49:17.335Z,10.10
2022-10-05T01:52:01.338Z,5.05
2022-10-05T01:54:49.994Z,8.43
2022-10-05T01:57:32.092Z,7.05
2022-10-05T02:00:07.755Z,5.15
2022-10-05T02:02:56.231Z,9.93
2022-10-05T02:05:35.236Z,7.63
2022-10-05T02:08:12.170Z,11.27
2022-10-05T02:10:52.029Z,5.75
2022-10-05T02:13:30.890Z,6.85
2022-10-05T02:16:07.277Z,6.63
2022-10-05T02:18:45.634Z,11.30
2022-10-05T02:21:19.484Z,4.93
2022-10-05T02:23:56.736Z,5.35
2022-10-05T02:26:31.367Z,6.18
2022-10-05T02:29:08.153Z,6.97
2022-10-05T02:31:46.290Z,5.70
2022-10-05T02:34:25.339Z,7.88
2022-10-05T02:37:18.308Z,5.55
2022-10-05T02:40:11.163Z,5.10
2022-10-05T02:42:49.134Z,5.68
2022-10-05T02:45:33.607Z,5.75
2022-10-05T02:48:14.934Z,6.47
2022-10-05T02:50:55.820Z,4.93
2022-10-05T02:53:39.004Z,3.97
2022-10-05T02:56:23.843Z,5.95
2022-10-05T02:59:02.309Z,5.25
2022-10-05T03:01:39.077Z,5.03
2022-10-05T03:04:21.175Z,6.53
2022-10-05T03:07:02.644Z,5.30
2022-10-05T03:09:49.371Z,6.35
2022-10-05T03:12:35.429Z,6.15
2022-10-05T03:15:23.820Z,7.68
2022-10-05T03:18:06.134Z,6.28
2022-10-05T03:20:46.189Z,5.43
2022-10-05T03:23:33.197Z,3.40
2022-10-05T03:26:20.551Z,7.63
2022-10-05T03:29:00.398Z,5.25
2022-10-05T03:31:41.664Z,5.63
2022-10-05T03:34:22.084Z,5.50
2022-10-05T03:36:59.644Z,7.82
2022-10-05T03:39:39.127Z,6.55
2022-10-05T03:42:21.098Z,7.68
2022-10-05T03:44:57.562Z,9.43
2022-10-05T03:47:39.622Z,7.60
2022-10-05T03:53:43.564Z,5.00
2022-10-05T03:56:23.758Z,4.03
2022-10-05T03:59:00.953Z,4.25
2022-10-05T04:01:43.563Z,7.65
2022-10-05T04:04:22.379Z,5.15
2022-10-05T04:06:57.953Z,6.18
2022-10-05T04:09:35.558Z,9.15
2022-10-05T04:12:16.359Z,5.00
2022-10-05T04:14:51.034Z,8.00
2022-10-05T04:17:31.697Z,6.93
2022-10-05T04:20:08.039Z,8.25
2022-10-05T04:22:45.889Z,6.63
2022-10-05T04:25:21.483Z,7.47
2022-10-05T04:28:02.375Z,5.38
2022-10-05T04:30:41.163Z,8.88
2022-10-05T04:33:13.827Z,6.45
2022-10-05T04:36:16.821Z,7.47
2022-10-05T04:39:02.662Z,11.27
2022-10-05T04:41:56.135Z,9.05
2022-10-05T04:44:59.251Z,7.65
2022-10-05T04:48:06.660Z,9.13
2022-10-05T04:50:51.505Z,5.20
2022-10-05T04:53:30.436Z,7.15
2022-10-05T04:56:10.261Z,8.18
2022-10-05T04:59:00.806Z,7.63
2022-10-05T05:01:54.725Z,8.25
2022-10-05T05:04:42.250Z,8.43
2022-10-05T05:07:26.165Z,6.45
2022-10-05T05:10:26.413Z,7.10
2022-10-05T05:13:15.613Z,5.45
2022-10-05T05:15:54.064Z,8.27
2022-10-05T05:19:06.247Z,9.88
2022-10-05T05:21:45.038Z,9.40
2022-10-05T05:24:24.934Z,11.93
2022-10-05T05:27:24.109Z,11.27
2022-10-05T05:30:03.950Z,10.90
2022-10-05T05:32:46.873Z,9.60
2022-10-05T05:35:39.211Z,8.27
2022-10-05T05:38:23.058Z,15.50
2022-10-05T05:41:05.311Z,16.17
2022-10-05T05:43:56.620Z,9.23
2022-10-05T05:47:01.912Z,21.15
2022-10-05T05:49:34.547Z,20.33
2022-10-05T05:52:15.950Z,20.30
2022-10-05T05:54:54.753Z,19.10
2022-10-05T05:57:30.569Z,18.40
2022-10-05T06:00:07.183Z,14.10
2022-10-05T06:02:54.486Z,19.65
2022-10-05T06:05:32.427Z,19.52
2022-10-05T06:08:16.806Z,16.65
2022-10-05T06:10:55.319Z,24.20
2022-10-05T06:13:34.724Z,13.52
2022-10-05T06:16:15.477Z,12.90
2022-10-05T06:18:52.744Z,16.42
2022-10-05T06:21:31.478Z,18.52
2022-10-05T06:24:14.122Z,14.27
2022-10-05T06:27:14.749Z,16.30
2022-10-05T06:32:33.428Z,17.50
2022-10-05T06:35:18.327Z,20.58
2022-10-05T06:38:07.186Z,17.38
2022-10-05T06:41:00.335Z,19.42
2022-10-05T06:43:45.566Z,21.92
2022-10-05T06:46:49.212Z,20.02
2022-10-05T06:49:47.920Z,25.30
2022-10-05T06:52:51.070Z,22.80
2022-10-05T06:55:34.179Z,18.48
2022-10-05T06:58:26.419Z,19.08
2022-10-05T07:01:06.396Z,25.00
2022-10-05T07:03:54.263Z,30.70
2022-10-05T07:06:35.149Z,36.67
2022-10-05T07:09:21.331Z,29.17
2022-10-05T07:12:07.733Z,103.32
2022-10-05T07:14:58.481Z,31.73
2022-10-05T07:17:45.706Z,33.92
2022-10-05T07:20:26.862Z,25.25
2022-10-05T07:23:24.550Z,76.07
2022-10-05T07:26:05.928Z,32.88
2022-10-05T07:28:47.072Z,32.88
2022-10-05T07:31:30.817Z,132.55
2022-10-05T07:34:13.420Z,95.63
2022-10-05T07:37:13.412Z,29.70
2022-10-05T07:40:00.531Z,67.05
2022-10-05T07:42:52.007Z,45.40
2022-10-05T07:45:33.928Z,113.75
2022-10-05T07:48:17.694Z,36.60
2022-10-05T07:50:58.830Z,28.25
2022-10-05T07:53:37.609Z,28.75
2022-10-05T07:56:21.374Z,37.33
2022-10-05T07:58:59.587Z,37.95
2022-10-05T08:01:35.376Z,45.67
2022-10-05T08:04:14.770Z,31.67
2022-10-05T08:06:51.285Z,43.08
2022-10-05T08:09:41.159Z,50.28
2022-10-05T08:12:25.427Z,23.67
2022-10-05T08:15:00.109Z,23.30
2022-10-05T08:17:52.851Z,20.55
2022-10-05T08:20:38.486Z,20.60
2022-10-05T08:23:21.071Z,15.52
2022-10-05T08:26:05.517Z,29.95
2022-10-05T08:28:39.903Z,20.48
2022-10-05T08:31:19.080Z,21.88
2022-10-05T08:33:58.787Z,33.40
2022-10-05T08:36:49.255Z,23.45
2022-10-05T08:39:30.085Z,28.27
2022-10-05T08:42:43.536Z,40.85
2022-10-05T08:46:04.455Z,15.70
2022-10-05T08:49:16.880Z,33.78
2022-10-05T08:52:17.794Z,18.35
2022-10-05T08:55:28.562Z,17.88
2022-10-05T08:58:26.609Z,17.08
2022-10-05T09:01:07.641Z,17.02
2022-10-05T09:04:09.729Z,21.33
2022-10-05T09:07:14.364Z,22.23
2022-10-05T09:10:19.247Z,16.42
2022-10-05T09:13:28.559Z,16.25
2022-10-05T09:16:17.946Z,16.45
2022-10-05T09:19:15.735Z,18.75
2022-10-05T09:21:57.994Z,20.67
2022-10-05T09:24:48.387Z,20.40
2022-10-05T09:27:35.420Z,10.85
2022-10-05T09:30:20.661Z,16.48
2022-10-05T09:33:35.045Z,16.10
2022-10-05T09:36:20.783Z,18.90
2022-10-05T09:39:20.789Z,14.10
2022-10-05T09:42:16.272Z,17.13
2022-10-05T09:45:28.622Z,19.92
2022-10-05T09:48:40.443Z,15.98
2022-10-05T09:51:35.145Z,14.65
2022-10-05T09:54:43.738Z,12.40
2022-10-05T09:57:53.103Z,16.08
2022-10-05T10:00:54.112Z,16.95
2022-10-05T10:04:16.174Z,19.95
2022-10-05T10:07:24.311Z,21.48
2022-10-05T10:10:18.447Z,19.48
2022-10-05T10:13:12.792Z,16.67
2022-10-05T10:16:03.977Z,18.25
2022-10-05T10:18:53.098Z,19.23
2022-10-05T10:22:05.451Z,12.52
2022-10-05T10:25:14.113Z,14.43
2022-10-05T10:28:06.867Z,15.73
2022-10-05T10:31:15.583Z,13.75
2022-10-05T10:34:35.295Z,14.25
2022-10-05T10:37:39.411Z,14.00
2022-10-05T10:40:36.115Z,26.95
2022-10-05T10:43:43.913Z,19.15
2022-10-05T10:46:26.035Z,19.65
2022-10-05T10:49:15.825Z,14.90
2022-10-05T10:52:10.732Z,15.90
2022-10-05T10:55:11.043Z,17.13
2022-10-05T10:58:01.731Z,13.40
2022-10-05T11:00:49.243Z,17.08
2022-10-05T11:03:56.176Z,15.52
2022-10-05T11:06:50.492Z,20.10
2022-10-05T11:09:38.490Z,14.82
2022-10-05T11:12:44.249Z,22.65
2022-10-05T11:15:38.775Z,20.05
2022-10-05T11:18:18.175Z,17.67
2022-10-05T11:21:04.744Z,14.75
2022-10-05T11:24:04.845Z,20.35
2022-10-05T11:27:00.571Z,14.18
2022-10-05T11:30:14.859Z,12.98
2022-10-05T11:33:06.287Z,13.88
2022-10-05T11:36:14.577Z,15.25
2022-10-05T11:39:13.718Z,19.58
2022-10-05T11:42:01.647Z,11.32
2022-10-05T11:45:14.521Z,14.55
2022-10-05T11:48:11.809Z,20.73
2022-10-05T11:50:57.024Z,16.90
2022-10-05T11:53:37.543Z,16.27
2022-10-05T11:58:54.758Z,13.55
2022-10-05T12:01:34.696Z,10.77
2022-10-05T12:04:17.171Z,15.80
2022-10-05T12:07:04.562Z,12.95
2022-10-05T12:10:14.441Z,16.20
2022-10-05T12:12:58.481Z,8.15
2022-10-05T12:15:38.631Z,11.10
2022-10-05T12:18:16.960Z,15.15
2022-10-05T12:20:53.363Z,11.90
2022-10-05T12:23:33.836Z,16.73
2022-10-05T12:26:12.089Z,16.15
2022-10-05T12:28:47.783Z,13.50
2022-10-05T12:31:30.691Z,13.60
2022-10-05T12:34:13.362Z,20.63
2022-10-05T12:37:04.156Z,12.13
2022-10-05T12:39:45.098Z,12.07
2022-10-05T12:45:20.916Z,10.00
2022-10-05T12:48:20.693Z,15.95
2022-10-05T12:50:57.300Z,14.45
2022-10-05T12:53:42.308Z,12.57
2022-10-05T12:56:24.303Z,15.75
2022-10-05T12:59:09.531Z,10.48
2022-10-05T13:01:48.819Z,13.02
2022-10-05T13:04:32.436Z,11.98
2022-10-05T13:07:32.012Z,12.15
2022-10-05T13:10:17.955Z,10.73
2022-10-05T13:12:57.499Z,19.52
2022-10-05T13:15:34.542Z,14.00
2022-10-05T13:18:19.021Z,16.85
2022-10-05T13:21:02.783Z,16.38
2022-10-05T13:23:47.619Z,14.57
2022-10-05T13:26:26.459Z,12.82
2022-10-05T13:29:04.727Z,11.43
2022-10-05T13:31:44.789Z,15.27
2022-10-05T13:34:27.437Z,14.73
2022-10-05T13:37:09.606Z,12.43
2022-10-05T13:39:54.246Z,12.75
2022-10-05T13:42:34.285Z,11.63
2022-10-05T13:45:13.946Z,9.93
2022-10-05T13:48:03.243Z,15.50
2022-10-05T13:50:44.212Z,10.73
2022-10-05T13:53:25.788Z,11.63
2022-10-05T13:56:00.552Z,13.50
2022-10-05T13:58:45.372Z,11.93
2022-10-05T14:01:34.827Z,10.57
2022-10-05T14:04:16.987Z,10.88
2022-10-05T14:06:49.330Z,12.07
2022-10-05T14:09:29.890Z,16.25
2022-10-05T14:12:20.419Z,11.88
2022-10-05T14:14:54.685Z,13.88
2022-10-05T14:17:37.727Z,10.70
2022-10-05T14:20:21.771Z,10.73
2022-10-05T14:22:58.157Z,16.20
2022-10-05T14:25:31.139Z,14.80
2022-10-05T14:28:23.394Z,17.00
2022-10-05T14:31:00.530Z,15.57
2022-10-05T14:33:35.006Z,19.27
2022-10-05T14:36:16.227Z,20.33
2022-10-05T14:38:52.886Z,18.02
2022-10-05T14:41:27.456Z,19.98
2022-10-05T14:44:04.038Z,14.93
2022-10-05T14:46:37.393Z,13.40
2022-10-05T14:49:18.208Z,12.25
2022-10-05T14:51:53.476Z,13.40
2022-10-05T14:54:45.515Z,13.57
2022-10-05T14:57:29.279Z,12.65
2022-10-05T15:00:11.739Z,15.80
2022-10-05T15:03:29.338Z,11.77
2022-10-05T15:06:03.787Z,17.27
2022-10-05T15:08:52.447Z,17.38
2022-10-05T15:11:35.870Z,12.50
2022-10-05T15:14:14.749Z,13.52
2022-10-05T15:16:51.553Z,11.45
2022-10-05T15:19:32.250Z,11.27
2022-10-05T15:22:29.029Z,13.47
2022-10-05T15:25:13.244Z,12.43
2022-10-05T15:28:00.925Z,16.52
2022-10-05T15:30:37.850Z,13.07
2022-10-05T15:33:19.417Z,18.92
2022-10-05T15:36:08.254Z,15.30
2022-10-05T15:38:58.121Z,21.42
2022-10-05T15:41:49.420Z,19.13
2022-10-05T15:44:35.421Z,18.30
2022-10-05T15:47:14.010Z,21.60
2022-10-05T15:49:58.097Z,16.85
2022-10-05T15:52:37.766Z,21.65
2022-10-05T15:55:30.179Z,18.63
2022-10-05T15:58:32.729Z,20.52
2022-10-05T16:01:10.257Z,17.63
2022-10-05T16:03:52.745Z,14.82
2022-10-05T16:07:00.157Z,12.07
2022-10-05T16:09:42.570Z,13.73
2022-10-05T16:12:29.644Z,14.63
2022-10-05T16:15:17.632Z,19.13
2022-10-05T16:18:31.276Z,25.85
2022-10-05T16:21:14.071Z,14.65
2022-10-05T16:24:00.345Z,14.05
2022-10-05T16:26:47.818Z,16.45
2022-10-05T16:29:27.624Z,15.38
2022-10-05T16:32:06.161Z,19.90
2022-10-05T16:34:50.542Z,17.00
2022-10-05T16:37:33.092Z,15.23
2022-10-05T16:40:14.739Z,19.63
2022-10-05T16:42:58.803Z,18.42
2022-10-05T16:45:45.841Z,15.02
2022-10-05T16:48:25.282Z,18.52
2022-10-05T16:51:08.697Z,20.58
2022-10-05T16:53:44.384Z,11.40
2022-10-05T16:56:19.787Z,14.13
2022-10-05T16:59:05.121Z,18.10
2022-10-05T17:01:51.976Z,21.30
2022-10-05T17:04:40.553Z,14.68
2022-10-05T17:07:26.740Z,20.00
2022-10-05T17:10:23.742Z,15.93
2022-10-05T17:13:05.428Z,17.48
2022-10-05T17:15:53.174Z,17.52
2022-10-05T17:18:30.767Z,13.15
2022-10-05T17:21:11.698Z,13.15
2022-10-05T17:23:53.762Z,13.85
2022-10-05T17:26:54.825Z,12.98
2022-10-05T17:29:47.541Z,17.98
2022-10-05T17:32:39.632Z,15.75
2022-10-05T17:35:39.523Z,15.70
2022-10-05T17:38:18.197Z,20.08
2022-10-05T17:41:18.764Z,16.85
2022-10-05T17:44:16.364Z,20.48
2022-10-05T17:46:49.918Z,12.45
2022-10-05T17:49:39.572Z,16.20
2022-10-05T17:52:41.572Z,17.60
2022-10-05T17:55:38.367Z,15.45
2022-10-05T17:59:00.973Z,17.38
2022-10-05T18:01:35.793Z,15.68
2022-10-05T18:04:30.478Z,17.08
2022-10-05T18:07:05.753Z,18.77
2022-10-05T18:09:55.160Z,17.00
2022-10-05T18:12:47.841Z,16.77
2022-10-05T18:15:45.091Z,19.25
2022-10-05T18:18:48.702Z,18.23
2022-10-05T18:21:29.729Z,18.85
2022-10-05T18:24:15.189Z,26.42
2022-10-05T18:26:59.590Z,52.42
2022-10-05T18:30:08.801Z,37.53
2022-10-05T18:33:07.507Z,33.10
2022-10-05T18:35:52.415Z,34.47
2022-10-05T18:38:35.955Z,24.08
2022-10-05T18:41:18.079Z,38.05
2022-10-05T18:44:03.473Z,45.50
2022-10-05T18:46:46.869Z,28.38
2022-10-05T18:49:36.249Z,22.95
2022-10-05T18:52:16.770Z,27.40
2022-10-05T18:54:57.516Z,24.02
2022-10-05T18:57:50.178Z,19.42
2022-10-05T19:00:24.285Z,18.48
2022-10-05T19:03:02.774Z,22.10
2022-10-05T19:05:48.797Z,17.20
2022-10-05T19:08:33.026Z,22.00
2022-10-05T19:11:12.467Z,26.98
2022-10-05T19:13:52.145Z,27.42
2022-10-05T19:16:50.577Z,21.25
2022-10-05T19:19:38.671Z,23.98
2022-10-05T19:22:19.888Z,20.25
2022-10-05T19:25:14.870Z,21.08
2022-10-05T19:27:57.139Z,16.85
2022-10-05T19:30:37.098Z,25.23
2022-10-05T19:33:28.405Z,15.02
2022-10-05T19:36:24.049Z,17.48
2022-10-05T19:39:03.981Z,20.25
2022-10-05T19:41:53.445Z,16.60
2022-10-05T19:44:38.532Z,15.65
2022-10-05T19:47:28.851Z,17.75
2022-10-05T19:50:05.398Z,15.38
2022-10-05T19:52:46.334Z,15.68
2022-10-05T19:55:31.196Z,18.33
2022-10-05T19:58:17.391Z,28.75
2022-10-05T20:00:57.237Z,19.17
2022-10-05T20:03:30.815Z,17.70
2022-10-05T20:06:05.234Z,18.52
2022-10-05T20:08:41.847Z,12.65
2022-10-05T20:11:15.673Z,15.60
2022-10-05T20:14:17.276Z,13.20
2022-10-05T20:17:36.611Z,18.08
2022-10-05T20:20:25.030Z,12.98
2022-10-05T20:23:21.681Z,15.15
2022-10-05T20:26:13.589Z,24.90
2022-10-05T20:28:46.802Z,19.95
2022-10-05T20:31:20.087Z,18.85
2022-10-05T20:33:52.472Z,14.63
2022-10-05T20:36:24.413Z,17.65
2022-10-05T20:38:56.313Z,15.38
2022-10-05T20:41:29.613Z,19.15
2022-10-05T20:44:01.593Z,22.95
2022-10-05T20:46:34.060Z,17.73
2022-10-05T20:49:08.332Z,17.63
2022-10-05T20:51:40.645Z,16.50
2022-10-05T20:54:12.593Z,14.95
2022-10-05T20:56:46.175Z,15.25
2022-10-05T20:59:18.116Z,17.17
2022-10-05T21:01:50.798Z,16.70
2022-10-05T21:04:25.090Z,18.13
2022-10-05T21:06:57.079Z,14.90
2022-10-05T21:09:29.643Z,21.08
2022-10-05T21:12:03.357Z,19.83
2022-10-05T21:14:36.323Z,19.05
2022-10-05T21:17:08.410Z,16.13
2022-10-05T21:19:40.739Z,16.25
2022-10-05T21:22:12.681Z,16.98
2022-10-05T21:24:45.825Z,15.65
2022-10-05T21:27:19.263Z,21.60
2022-10-05T21:29:51.501Z,16.15
2022-10-05T21:32:23.437Z,12.85
2022-10-05T21:34:55.374Z,17.00
2022-10-05T21:37:27.270Z,13.50
2022-10-05T21:39:59.279Z,16.00
2022-10-05T21:42:32.709Z,18.98
2022-10-05T21:45:05.655Z,16.02
2022-10-05T21:47:37.803Z,15.60
2022-10-05T21:50:10.370Z,11.43
2022-10-05T21:52:42.716Z,11.90
2022-10-05T21:55:15.854Z,13.20
2022-10-05T21:57:49.163Z,14.02
2022-10-05T22:00:21.311Z,13.18
2022-10-05T22:02:53.283Z,11.05
2022-10-05T22:05:25.365Z,11.95
2022-10-05T22:07:57.449Z,11.90
2022-10-05T22:10:29.763Z,12.38
2022-10-05T22:13:04.346Z,12.52
2022-10-05T22:15:36.353Z,11.23
2022-10-05T22:18:15.497Z,13.55
2022-10-05T22:20:47.841Z,18.55
2022-10-05T22:23:20.137Z,13.25
2022-10-05T22:25:53.114Z,11.20
2022-10-05T22:28:27.510Z,12.30
2022-10-05T22:31:01.860Z,14.43
2022-10-05T22:33:34.241Z,13.10
2022-10-05T22:36:07.710Z,12.57
2022-10-05T22:38:39.689Z,16.13
2022-10-05T22:41:12.535Z,14.30
2022-10-05T22:43:48.772Z,15.68
2022-10-05T22:46:21.265Z,18.67
2022-10-05T22:48:53.235Z,11.02
2022-10-05T22:51:25.315Z,13.63
2022-10-05T22:53:57.611Z,14.38
2022-10-05T22:56:29.667Z,11.82
2022-10-05T22:59:02.983Z,19.77
2022-10-05T23:01:35.105Z,17.52
2022-10-05T23:04:08.853Z,16.08
2022-10-05T23:06:40.820Z,14.30
2022-10-05T23:09:12.762Z,14.75
2022-10-05T23:11:46.672Z,20.95
2022-10-05T23:14:20.783Z,14.63
2022-10-05T23:16:52.797Z,15.00
2022-10-05T23:19:24.781Z,13.07
2022-10-05T23:21:56.702Z,11.65
2022-10-05T23:24:28.668Z,19.63
2022-10-05T23:27:00.647Z,11.27
2022-10-05T23:29:33.959Z,20.38
2022-10-05T23:32:05.981Z,16.70
2022-10-05T23:34:38.072Z,21.05
2022-10-05T23:37:10.263Z,13.10
2022-10-05T23:39:42.944Z,13.05
2022-10-05T23:42:14.892Z,11.95
2022-10-05T23:44:48.240Z,21.10
2022-10-05T23:47:20.284Z,14.57
2022-10-05T23:49:52.317Z,13.38
2022-10-05T23:52:24.251Z,16.23
2022-10-05T23:54:56.221Z,19.98
2022-10-05T23:57:28.477Z,19.77
